Archival Weather

Kayes/Dag-Dag

Kayes/Dag-Dag, Mali (GAKD)

Report from: Thursday, September 21, 2023 6:00 PM UTC
Current time: Thursday, May 30, 2024 1:01 AM UTC

Current weather – Weather history – Daily summaries
Weather forecast

Temperature33.0°C (91.4°F)
Heat index38.1°C (100.6°F)
Dew point23.0°C (73.4°F)
Winds 4 kts (2.1 m/s, 4.6 mph) North (360°)
Visibility6.2 mi. (10 km)
Clouds Few clouds 2,000 ft. (610 m)
Altimeter29.85 in.Hg (1011 mB)
Relative humidity56 %
Density altitude2,503 ft. (763 m)
Flight conditions Visual Meteorological Conditions
Raw dataGAKD 211800Z 36004KT 9999 FEW020 33/23 Q1011
An error has occurred. This application may no longer respond until reloaded. Reload 🗙